createdAt,value
2022-10-21T00:01:50.765Z,3.65
2022-10-21T00:04:23.938Z,3.70
2022-10-21T00:06:56.556Z,3.75
2022-10-21T00:09:29.896Z,3.72
2022-10-21T00:12:02.340Z,4.00
2022-10-21T00:14:36.045Z,3.65
2022-10-21T00:17:10.416Z,5.40
2022-10-21T00:19:43.161Z,4.12
2022-10-21T00:22:16.625Z,4.58
2022-10-21T00:24:49.214Z,4.17
2022-10-21T00:27:21.709Z,3.83
2022-10-21T00:29:54.094Z,4.53
2022-10-21T00:32:28.164Z,3.95
2022-10-21T00:35:01.121Z,3.70
2022-10-21T00:37:34.352Z,3.95
2022-10-21T00:40:08.287Z,5.55
2022-10-21T00:42:45.530Z,4.12
2022-10-21T00:45:24.023Z,4.47
2022-10-21T00:48:06.218Z,4.12
2022-10-21T00:51:08.997Z,3.83
2022-10-21T00:53:45.494Z,4.40
2022-10-21T00:56:27.803Z,3.87
2022-10-21T00:59:01.725Z,5.40
2022-10-21T01:01:34.808Z,4.58
2022-10-21T01:04:07.844Z,4.55
2022-10-21T01:06:40.742Z,4.03
2022-10-21T01:09:13.619Z,5.62
2022-10-21T01:11:47.600Z,5.95
2022-10-21T01:14:40.736Z,4.50
2022-10-21T01:17:44.165Z,4.15
2022-10-21T01:21:01.775Z,5.40
2022-10-21T01:23:56.073Z,3.55
2022-10-21T01:27:05.369Z,4.00
2022-10-21T01:30:01.830Z,3.50
2022-10-21T01:32:51.237Z,4.10
2022-10-21T01:35:33.859Z,3.98
2022-10-21T01:38:34.224Z,3.50
2022-10-21T01:41:23.830Z,4.00
2022-10-21T01:44:25.433Z,3.77
2022-10-21T01:47:04.557Z,3.80
2022-10-21T01:49:56.694Z,4.08
2022-10-21T01:52:30.215Z,3.95
2022-10-21T01:55:06.847Z,3.90
2022-10-21T01:57:43.652Z,4.03
2022-10-21T02:00:18.072Z,3.60
2022-10-21T02:02:51.064Z,3.85
2022-10-21T02:05:27.595Z,3.52
2022-10-21T02:08:01.124Z,4.37
2022-10-21T02:10:41.331Z,3.80
2022-10-21T02:13:18.209Z,4.15
2022-10-21T02:15:52.209Z,3.87
2022-10-21T02:18:26.640Z,3.92
2022-10-21T02:21:10.194Z,4.33
2022-10-21T02:23:56.480Z,3.93
2022-10-21T02:26:30.352Z,4.00
2022-10-21T02:29:03.629Z,6.08
2022-10-21T02:31:52.843Z,3.65
2022-10-21T02:34:42.380Z,4.55
2022-10-21T02:37:24.289Z,5.28
2022-10-21T02:40:04.790Z,3.98
2022-10-21T02:42:41.751Z,3.90
2022-10-21T02:45:14.343Z,7.72
2022-10-21T02:47:48.502Z,4.37
2022-10-21T02:50:21.330Z,3.90
2022-10-21T02:52:54.697Z,4.33
2022-10-21T02:55:28.538Z,4.12
2022-10-21T02:58:02.686Z,4.10
2022-10-21T03:00:35.713Z,4.28
2022-10-21T03:03:09.067Z,6.15
2022-10-21T03:05:43.252Z,4.33
2022-10-21T03:08:17.156Z,3.85
2022-10-21T03:10:53.572Z,4.40
2022-10-21T03:13:26.683Z,4.30
2022-10-21T03:16:00.098Z,4.17
2022-10-21T03:18:33.575Z,8.65
2022-10-21T03:21:07.726Z,6.08
2022-10-21T03:23:40.675Z,4.90
2022-10-21T03:26:13.421Z,5.30
2022-10-21T03:28:46.869Z,5.40
2022-10-21T03:31:19.827Z,6.55
2022-10-21T03:33:53.465Z,5.08
2022-10-21T03:36:27.150Z,4.47
2022-10-21T03:38:59.975Z,5.08
2022-10-21T03:41:33.063Z,7.55
2022-10-21T03:44:05.740Z,5.15
2022-10-21T03:46:39.751Z,5.75
2022-10-21T03:49:21.060Z,5.00
2022-10-21T03:51:51.872Z,6.50
2022-10-21T03:54:24.589Z,4.60
2022-10-21T03:56:58.933Z,7.50
2022-10-21T03:59:31.654Z,5.00
2022-10-21T04:02:04.976Z,5.53
2022-10-21T04:04:38.610Z,4.95
2022-10-21T04:07:12.976Z,5.35
2022-10-21T04:09:47.276Z,7.25
2022-10-21T04:12:20.029Z,6.42
2022-10-21T04:14:55.732Z,6.47
2022-10-21T04:17:28.914Z,5.92
2022-10-21T04:20:05.720Z,5.85
2022-10-21T04:22:39.542Z,5.85
2022-10-21T04:25:12.472Z,5.40
2022-10-21T04:27:45.696Z,5.95
2022-10-21T04:30:18.478Z,5.60
2022-10-21T04:32:54.780Z,5.92
2022-10-21T04:35:28.094Z,6.00
2022-10-21T04:38:00.951Z,5.87
2022-10-21T04:40:34.541Z,6.97
2022-10-21T04:43:07.344Z,6.15
2022-10-21T04:45:43.718Z,7.12
2022-10-21T04:48:16.687Z,9.05
2022-10-21T04:50:54.276Z,12.80
2022-10-21T04:53:27.157Z,7.58
2022-10-21T04:56:01.248Z,8.55
2022-10-21T04:58:35.145Z,8.95
2022-10-21T05:01:08.266Z,7.40
2022-10-21T05:03:41.586Z,7.13
2022-10-21T05:06:14.541Z,5.83
2022-10-21T05:08:47.747Z,6.87
2022-10-21T05:11:21.523Z,7.45
2022-10-21T05:16:29.195Z,7.45
2022-10-21T05:19:02.482Z,6.95
2022-10-21T05:24:12.214Z,11.03
2022-10-21T05:26:44.971Z,5.58
2022-10-21T05:29:19.247Z,10.73
2022-10-21T05:31:53.514Z,6.10
2022-10-21T05:34:26.407Z,8.25
2022-10-21T05:36:59.725Z,8.55
2022-10-21T05:39:32.398Z,6.35
2022-10-21T05:42:05.466Z,6.50
2022-10-21T05:44:38.143Z,7.35
2022-10-21T05:47:11.581Z,6.60
2022-10-21T05:49:45.177Z,15.53
2022-10-21T05:52:18.229Z,9.33
2022-10-21T05:54:51.597Z,10.78
2022-10-21T05:57:25.613Z,9.48
2022-10-21T05:59:58.887Z,14.00
2022-10-21T06:02:33.738Z,8.53
2022-10-21T06:07:41.240Z,9.63
2022-10-21T06:10:14.465Z,9.40
2022-10-21T06:12:48.630Z,14.38
2022-10-21T06:15:24.258Z,13.05
2022-10-21T06:17:58.208Z,10.13
2022-10-21T06:20:31.934Z,12.00
2022-10-21T06:23:05.340Z,14.13
2022-10-21T06:25:39.102Z,14.87
2022-10-21T06:28:12.432Z,16.87
2022-10-21T06:30:45.497Z,10.78
2022-10-21T06:33:19.625Z,11.75
2022-10-21T06:35:52.640Z,12.73
2022-10-21T06:38:27.480Z,13.95
2022-10-21T06:41:12.414Z,14.70
2022-10-21T06:43:44.373Z,19.30
2022-10-21T06:46:18.779Z,16.52
2022-10-21T06:48:51.967Z,16.65
2022-10-21T06:51:46.068Z,19.17
2022-10-21T06:54:18.769Z,17.40
2022-10-21T06:56:53.427Z,14.10
2022-10-21T06:59:26.154Z,15.43
2022-10-21T07:02:00.710Z,18.25
2022-10-21T07:07:06.087Z,20.52
2022-10-21T07:09:38.951Z,20.55
2022-10-21T07:12:11.722Z,20.43
2022-10-21T07:14:44.660Z,17.42
2022-10-21T07:17:18.149Z,11.43
2022-10-21T07:19:51.282Z,11.65
2022-10-21T07:22:25.246Z,8.95
2022-10-21T07:24:58.458Z,11.60
2022-10-21T07:30:05.858Z,8.90
2022-10-21T07:32:38.782Z,10.13
2022-10-21T07:35:11.834Z,10.43
2022-10-21T07:37:44.630Z,8.05
2022-10-21T07:40:17.377Z,7.40
2022-10-21T07:42:50.115Z,7.28
2022-10-21T07:45:22.850Z,8.43
2022-10-21T07:47:55.610Z,7.17
2022-10-21T07:50:28.958Z,5.33
2022-10-21T07:53:12.030Z,6.05
2022-10-21T07:55:38.486Z,4.95
2022-10-21T07:58:11.369Z,9.78
2022-10-21T08:00:47.136Z,7.83
2022-10-21T08:03:20.938Z,8.28
2022-10-21T08:05:58.232Z,7.15
2022-10-21T08:08:31.786Z,5.37
2022-10-21T08:11:05.940Z,4.72
2022-10-21T08:13:41.780Z,6.47
2022-10-21T08:16:14.956Z,6.35
2022-10-21T08:18:49.395Z,7.35
2022-10-21T08:21:22.070Z,8.08
2022-10-21T08:23:55.522Z,7.72
2022-10-21T08:26:28.171Z,6.70
2022-10-21T08:29:01.927Z,7.87
2022-10-21T08:31:36.218Z,7.87
2022-10-21T08:34:08.887Z,9.35
2022-10-21T08:36:43.170Z,6.60
2022-10-21T08:39:17.542Z,6.35
2022-10-21T08:42:09.407Z,6.30
2022-10-21T08:44:50.155Z,5.20
2022-10-21T08:47:43.561Z,6.30
2022-10-21T08:50:19.961Z,7.22
2022-10-21T08:53:09.939Z,7.78
2022-10-21T08:55:45.237Z,6.78
2022-10-21T08:58:23.675Z,5.75
2022-10-21T09:01:26.724Z,4.87
2022-10-21T09:04:13.555Z,5.72
2022-10-21T09:07:00.522Z,5.17
2022-10-21T09:09:47.781Z,5.00
2022-10-21T09:12:38.067Z,8.23
2022-10-21T09:15:24.899Z,7.83
2022-10-21T09:18:19.455Z,6.90
2022-10-21T09:21:22.035Z,7.47
2022-10-21T09:24:10.029Z,5.92
2022-10-21T09:26:49.015Z,5.87
2022-10-21T09:29:41.293Z,6.97
2022-10-21T09:32:21.645Z,5.55
2022-10-21T09:35:33.817Z,5.87
2022-10-21T09:38:15.131Z,10.95
2022-10-21T09:40:49.549Z,7.42
2022-10-21T09:43:25.478Z,9.28
2022-10-21T09:45:58.762Z,8.45
2022-10-21T09:48:53.956Z,8.85
2022-10-21T09:51:30.237Z,7.12
2022-10-21T09:54:21.201Z,8.65
2022-10-21T09:57:08.299Z,6.90
2022-10-21T09:59:56.350Z,7.30
2022-10-21T10:02:41.812Z,6.80
2022-10-21T10:05:47.756Z,7.30
2022-10-21T10:08:48.959Z,8.10
2022-10-21T10:11:25.392Z,6.80
2022-10-21T10:13:59.317Z,8.23
2022-10-21T10:16:34.186Z,7.00
2022-10-21T10:19:22.809Z,8.40
2022-10-21T10:22:16.342Z,9.03
2022-10-21T10:24:51.190Z,8.78
2022-10-21T10:27:26.065Z,8.18
2022-10-21T10:30:00.184Z,7.35
2022-10-21T10:32:36.206Z,9.08
2022-10-21T10:35:12.368Z,9.25
2022-10-21T10:37:48.390Z,8.85
2022-10-21T10:40:33.114Z,8.60
2022-10-21T10:43:16.274Z,7.53
2022-10-21T10:46:09.985Z,11.38
2022-10-21T10:48:46.215Z,9.45
2022-10-21T10:51:30.147Z,8.95
2022-10-21T10:54:13.106Z,8.65
2022-10-21T10:56:50.762Z,13.03
2022-10-21T10:59:36.479Z,10.28
2022-10-21T11:02:18.630Z,8.75
2022-10-21T11:05:35.926Z,7.60
2022-10-21T11:08:36.396Z,8.15
2022-10-21T11:11:30.182Z,8.28
2022-10-21T11:14:04.089Z,10.90
2022-10-21T11:17:06.953Z,8.73
2022-10-21T11:20:05.506Z,7.80
2022-10-21T11:23:12.231Z,8.18
2022-10-21T11:25:55.362Z,9.85
2022-10-21T11:28:48.007Z,9.68
2022-10-21T11:31:28.398Z,10.15
2022-10-21T11:34:19.070Z,7.12
2022-10-21T11:37:17.621Z,7.85
2022-10-21T11:40:16.127Z,7.50
2022-10-21T11:42:53.149Z,5.42
2022-10-21T11:45:59.935Z,5.70
2022-10-21T11:48:54.827Z,5.12
2022-10-21T11:52:11.195Z,5.65
2022-10-21T11:55:08.908Z,4.80
2022-10-21T11:57:58.598Z,5.05
2022-10-21T12:00:34.573Z,5.60
2022-10-21T12:03:47.638Z,7.83
2022-10-21T12:06:43.170Z,4.20
2022-10-21T12:09:46.973Z,5.25
2022-10-21T12:12:27.870Z,4.53
2022-10-21T12:15:03.500Z,6.15
2022-10-21T12:20:24.379Z,4.83
2022-10-21T12:23:03.498Z,3.60
2022-10-21T12:25:52.719Z,2.60
2022-10-21T12:28:56.266Z,2.70
2022-10-21T12:32:06.519Z,4.40
2022-10-21T12:34:39.179Z,4.55
2022-10-21T12:37:42.283Z,2.45
2022-10-21T12:40:29.476Z,5.70
2022-10-21T12:43:09.744Z,2.60
2022-10-21T12:45:44.333Z,3.50
2022-10-21T12:48:41.011Z,3.65
2022-10-21T12:51:25.059Z,2.98
2022-10-21T12:54:09.171Z,5.78
2022-10-21T12:56:51.243Z,3.15
2022-10-21T12:59:52.338Z,3.25
2022-10-21T13:02:28.704Z,2.60
2022-10-21T13:05:01.505Z,3.47
2022-10-21T13:07:35.472Z,3.02
2022-10-21T13:10:13.036Z,3.35
2022-10-21T13:12:47.299Z,3.92
2022-10-21T13:15:35.235Z,2.60
2022-10-21T13:18:09.788Z,2.25
2022-10-21T13:20:46.608Z,2.83
2022-10-21T13:23:32.909Z,3.55
2022-10-21T13:26:19.539Z,3.08
2022-10-21T13:29:11.502Z,5.45
2022-10-21T13:31:44.472Z,4.58
2022-10-21T13:34:29.685Z,4.22
2022-10-21T13:37:03.118Z,3.62
2022-10-21T13:39:37.291Z,4.75
2022-10-21T13:42:16.738Z,2.80
2022-10-21T13:44:54.275Z,2.60
2022-10-21T13:47:39.107Z,3.83
2022-10-21T13:50:20.371Z,3.35
2022-10-21T13:52:56.713Z,2.25
2022-10-21T13:55:30.314Z,3.70
2022-10-21T13:58:05.505Z,2.70
2022-10-21T14:00:39.118Z,3.08
2022-10-21T14:03:16.711Z,3.50
2022-10-21T14:06:00.506Z,3.30
2022-10-21T14:08:37.869Z,4.42
2022-10-21T14:11:22.496Z,4.40
2022-10-21T14:13:56.022Z,3.98
2022-10-21T14:16:40.813Z,5.78
2022-10-21T14:19:32.328Z,3.47
2022-10-21T14:22:08.666Z,3.37
2022-10-21T14:25:06.207Z,3.42
2022-10-21T14:27:46.098Z,3.95
2022-10-21T14:30:23.105Z,3.62
2022-10-21T14:32:57.340Z,3.12
2022-10-21T14:35:31.691Z,2.83
2022-10-21T14:38:05.138Z,3.80
2022-10-21T14:40:44.851Z,3.35
2022-10-21T14:43:24.292Z,3.17
2022-10-21T14:45:58.367Z,3.12
2022-10-21T14:48:40.088Z,3.10
2022-10-21T14:51:20.415Z,2.87
2022-10-21T14:53:58.582Z,4.10
2022-10-21T14:56:41.608Z,6.42
2022-10-21T14:59:24.211Z,3.35
2022-10-21T15:01:58.740Z,3.30
2022-10-21T15:04:59.971Z,3.52
2022-10-21T15:07:40.834Z,4.65
2022-10-21T15:10:20.364Z,4.92
2022-10-21T15:12:55.728Z,5.65
2022-10-21T15:15:53.456Z,4.17
2022-10-21T15:18:33.311Z,4.40
2022-10-21T15:21:16.756Z,4.00
2022-10-21T15:23:57.941Z,5.67
2022-10-21T15:26:40.414Z,8.55
2022-10-21T15:29:29.905Z,7.42
2022-10-21T15:32:03.306Z,6.35
2022-10-21T15:34:37.585Z,4.67
2022-10-21T15:37:12.521Z,4.15
2022-10-21T15:39:46.324Z,6.03
2022-10-21T15:42:21.668Z,5.55
2022-10-21T15:44:55.673Z,12.63
2022-10-21T15:47:29.036Z,12.65
2022-10-21T15:50:02.012Z,7.55
2022-10-21T15:52:36.712Z,6.50
2022-10-21T15:55:13.349Z,6.03
2022-10-21T15:57:46.737Z,4.42
2022-10-21T16:00:23.455Z,4.53
2022-10-21T16:02:57.811Z,6.50
2022-10-21T16:05:30.890Z,7.85
2022-10-21T16:08:04.037Z,12.05
2022-10-21T16:10:41.501Z,12.68
2022-10-21T16:13:19.960Z,17.10
2022-10-21T16:15:54.843Z,20.05
2022-10-21T16:18:29.124Z,13.35
2022-10-21T16:21:06.213Z,11.83
2022-10-21T16:23:41.212Z,13.18
2022-10-21T16:26:35.133Z,17.30
2022-10-21T16:29:10.211Z,10.13
2022-10-21T16:34:17.811Z,9.65
2022-10-21T16:36:50.806Z,10.08
2022-10-21T16:39:26.211Z,9.70
2022-10-21T16:42:02.309Z,13.05
2022-10-21T16:44:37.955Z,10.18
2022-10-21T16:47:18.443Z,13.00
2022-10-21T16:49:52.782Z,12.30
2022-10-21T16:52:27.787Z,10.00
2022-10-21T16:55:02.359Z,10.50
2022-10-21T16:57:38.970Z,10.60
2022-10-21T17:00:32.419Z,10.53
2022-10-21T17:03:11.248Z,11.30
2022-10-21T17:05:47.561Z,11.30
2022-10-21T17:08:24.027Z,12.15
2022-10-21T17:10:59.388Z,17.70
2022-10-21T17:16:09.425Z,15.35
2022-10-21T17:18:47.698Z,17.15
2022-10-21T17:21:27.851Z,12.37
2022-10-21T17:24:05.805Z,15.25
2022-10-21T17:26:44.144Z,13.15
2022-10-21T17:29:19.189Z,13.80
2022-10-21T17:31:56.205Z,14.40
2022-10-21T17:34:34.847Z,15.20
2022-10-21T17:37:18.055Z,13.15
2022-10-21T17:40:02.904Z,15.38
2022-10-21T17:45:17.531Z,14.33
2022-10-21T17:47:54.944Z,14.95
2022-10-21T17:50:33.581Z,12.28
2022-10-21T17:53:12.748Z,14.18
2022-10-21T17:55:46.136Z,11.97
2022-10-21T17:58:29.139Z,11.70
2022-10-21T18:01:06.072Z,12.43
2022-10-21T18:06:43.559Z,13.45
2022-10-21T18:09:24.714Z,10.00
2022-10-21T18:12:04.570Z,16.37
2022-10-21T18:14:40.884Z,16.73
2022-10-21T18:17:16.518Z,11.57
2022-10-21T18:20:09.091Z,14.40
2022-10-21T18:22:46.846Z,13.43
2022-10-21T18:25:21.783Z,15.20
2022-10-21T18:27:58.485Z,18.73
2022-10-21T18:30:35.669Z,16.67
2022-10-21T18:33:15.370Z,19.82
2022-10-21T18:35:55.815Z,19.60
2022-10-21T18:38:29.041Z,24.85
2022-10-21T18:41:25.943Z,31.17
2022-10-21T18:44:12.828Z,29.57
2022-10-21T18:46:50.122Z,26.87
2022-10-21T18:52:02.862Z,34.65
2022-10-21T18:54:40.750Z,37.35
2022-10-21T18:57:18.015Z,39.13
2022-10-21T18:59:57.368Z,31.87
2022-10-21T19:02:30.392Z,35.20
2022-10-21T19:05:05.462Z,32.38
2022-10-21T19:07:42.779Z,35.23
2022-10-21T19:10:18.708Z,37.13
2022-10-21T19:12:53.109Z,33.80
2022-10-21T19:15:27.998Z,31.45
2022-10-21T19:18:02.449Z,35.05
2022-10-21T19:20:39.510Z,34.80
2022-10-21T19:23:24.310Z,34.10
2022-10-21T19:26:00.078Z,32.93
2022-10-21T19:28:35.148Z,31.07
2022-10-21T19:31:12.991Z,32.55
2022-10-21T19:33:48.983Z,35.78
2022-10-21T19:36:21.730Z,34.98
2022-10-21T19:38:57.795Z,42.08
2022-10-21T19:41:30.607Z,37.05
2022-10-21T19:44:05.232Z,36.03
2022-10-21T19:46:38.633Z,36.98
2022-10-21T19:49:14.672Z,39.70
2022-10-21T19:51:48.870Z,39.63
2022-10-21T19:54:22.461Z,37.47
2022-10-21T19:56:57.503Z,39.65
2022-10-21T19:59:30.335Z,40.70
2022-10-21T20:02:03.078Z,36.23
2022-10-21T20:04:38.427Z,36.45
2022-10-21T20:07:12.074Z,32.55
2022-10-21T20:09:44.839Z,31.82
2022-10-21T20:12:17.451Z,29.57
2022-10-21T20:14:54.123Z,32.83
2022-10-21T20:20:07.330Z,26.45
2022-10-21T20:22:42.362Z,27.30
2022-10-21T20:25:15.542Z,24.23
2022-10-21T20:27:48.467Z,24.77
2022-10-21T20:30:21.610Z,23.07
2022-10-21T20:32:58.554Z,21.40
2022-10-21T20:38:06.843Z,18.92
2022-10-21T20:40:41.051Z,17.07
2022-10-21T20:45:48.447Z,14.85
2022-10-21T20:48:21.090Z,12.98
2022-10-21T20:51:08.281Z,13.20
2022-10-21T20:53:49.789Z,12.35
2022-10-21T20:56:23.017Z,12.75
2022-10-21T20:58:57.086Z,15.43
2022-10-21T21:01:54.555Z,12.55
2022-10-21T21:04:27.291Z,12.90
2022-10-21T21:07:00.397Z,12.03
2022-10-21T21:09:57.472Z,13.88
2022-10-21T21:12:10.124Z,11.55
2022-10-21T21:14:43.931Z,12.73
2022-10-21T21:17:17.167Z,16.45
2022-10-21T21:19:50.819Z,15.20
2022-10-21T21:22:23.841Z,15.40
2022-10-21T21:24:59.668Z,14.23
2022-10-21T21:27:35.363Z,15.35
2022-10-21T21:30:10.747Z,16.07
2022-10-21T21:32:45.331Z,15.53
2022-10-21T21:35:18.255Z,17.48
2022-10-21T21:37:52.127Z,18.48
2022-10-21T21:40:24.905Z,19.42
2022-10-21T21:45:32.480Z,21.30
2022-10-21T21:48:05.424Z,17.07
2022-10-21T21:50:40.219Z,19.45
2022-10-21T21:53:16.912Z,20.43
2022-10-21T21:55:49.955Z,23.27
2022-10-21T21:58:22.593Z,24.00
2022-10-21T22:00:55.608Z,21.50
2022-10-21T22:03:31.348Z,21.55
2022-10-21T22:06:05.958Z,22.85
2022-10-21T22:08:42.149Z,22.52
2022-10-21T22:11:17.735Z,24.20
2022-10-21T22:13:53.576Z,22.58
2022-10-21T22:16:28.269Z,21.70
2022-10-21T22:19:02.241Z,21.10
2022-10-21T22:21:35.415Z,22.82
2022-10-21T22:24:08.131Z,22.90
2022-10-21T22:26:41.802Z,21.17
2022-10-21T22:29:16.086Z,25.95
2022-10-21T22:31:48.755Z,23.12
2022-10-21T22:34:24.141Z,21.40
2022-10-21T22:39:29.057Z,21.73
2022-10-21T22:42:03.095Z,21.82
2022-10-21T22:44:37.455Z,22.13
2022-10-21T22:47:10.507Z,20.55
2022-10-21T22:49:44.375Z,23.98
2022-10-21T22:52:17.266Z,29.63
2022-10-21T22:54:50.732Z,19.50
2022-10-21T22:57:24.844Z,22.20
2022-10-21T23:00:00.266Z,18.77
2022-10-21T23:02:35.824Z,22.15
2022-10-21T23:05:09.834Z,24.15
2022-10-21T23:07:42.877Z,21.57
2022-10-21T23:10:17.431Z,24.63
2022-10-21T23:12:50.480Z,24.18
2022-10-21T23:15:23.065Z,24.57
2022-10-21T23:17:56.409Z,19.60
2022-10-21T23:20:50.913Z,22.22
2022-10-21T23:23:28.018Z,20.70
2022-10-21T23:26:03.304Z,22.55
2022-10-21T23:28:37.931Z,21.68
2022-10-21T23:31:11.975Z,22.62
2022-10-21T23:33:45.338Z,21.77
2022-10-21T23:36:18.557Z,21.02
2022-10-21T23:38:59.123Z,20.48
2022-10-21T23:41:33.644Z,25.37
2022-10-21T23:44:08.166Z,19.90
2022-10-21T23:46:41.140Z,24.75
2022-10-21T23:49:15.154Z,21.75
2022-10-21T23:51:48.199Z,25.92
2022-10-21T23:54:20.874Z,25.65
2022-10-21T23:56:53.746Z,22.85
2022-10-21T23:59:26.410Z,23.60
